Time;durP1;ratioP1;P1;durP2;ratioP2;P2;SDS_P1;SDS_P2;PMS_P1;PMS_P2;Temp;Humidity;BMP_temperature;BMP_pressure;BME280_temperature;BME280_humidity;BME280_pressure;Samples;Min_cycle;Max_cycle;Signal;HPM_P1;HPM_P2
2022/06/17 00:01:03;;;;;;;3.80;2.75;;;18.30;99.90;;;;;;4994932;28;20634;-54
2022/06/17 00:03:31;;;;;;;5.13;3.10;;;18.20;99.90;;;;;;4994775;28;20181;-55
2022/06/17 00:05:59;;;;;;;3.88;2.63;;;18.10;99.90;;;;;;4995027;28;20176;-54
2022/06/17 00:08:42;;;;;;;3.63;3.10;;;18.10;99.90;;;;;;4994851;28;20701;-54
2022/06/17 00:11:14;;;;;;;4.30;3.05;;;18.20;99.90;;;;;;4995205;28;20745;-54
2022/06/17 00:13:40;;;;;;;3.90;2.92;;;18.20;99.90;;;;;;4995277;28;20251;-54
2022/06/17 00:16:13;;;;;;;4.47;2.85;;;18.30;99.90;;;;;;4994830;28;20219;-54
2022/06/17 00:18:40;;;;;;;6.45;3.13;;;18.30;99.90;;;;;;4995180;28;20168;-54
2022/06/17 00:21:06;;;;;;;4.05;2.65;;;18.40;99.90;;;;;;4994686;28;20303;-54
2022/06/17 00:23:31;;;;;;;5.90;2.97;;;18.40;99.90;;;;;;4994682;28;20843;-54
2022/06/17 00:25:57;;;;;;;4.63;2.80;;;18.30;99.90;;;;;;4994735;28;20172;-54
2022/06/17 00:28:23;;;;;;;4.38;3.22;;;18.30;99.90;;;;;;4994631;28;20169;-54
2022/06/17 00:30:50;;;;;;;4.50;2.83;;;18.20;99.90;;;;;;4994543;28;20165;-54
2022/06/17 00:33:18;;;;;;;3.70;2.45;;;18.30;99.90;;;;;;4994574;28;20622;-54
2022/06/17 00:35:49;;;;;;;3.83;2.80;;;18.30;99.90;;;;;;4994705;28;20172;-54
2022/06/17 00:38:23;;;;;;;3.17;2.60;;;18.20;99.90;;;;;;4994467;28;20169;-54
2022/06/17 00:40:50;;;;;;;3.25;2.70;;;18.10;99.90;;;;;;4994263;28;20178;-54
2022/06/17 00:43:29;;;;;;;3.08;2.67;;;18.10;99.90;;;;;;4994231;28;20248;-54
2022/06/17 00:46:18;;;;;;;3.97;2.63;;;18.10;99.90;;;;;;4994360;28;20656;-54
2022/06/17 00:48:53;;;;;;;6.68;2.72;;;17.90;99.90;;;;;;4983571;28;20189;-54
2022/06/17 00:51:30;;;;;;;6.07;2.97;;;17.90;99.90;;;;;;4994155;28;20169;-54
2022/06/17 00:54:04;;;;;;;4.20;3.10;;;17.90;99.90;;;;;;4994165;28;20168;-54
2022/06/17 00:56:33;;;;;;;3.08;2.78;;;17.80;99.90;;;;;;4994101;28;20219;-54
2022/06/17 00:59:13;;;;;;;4.32;3.17;;;17.70;99.90;;;;;;4993979;28;20173;-55
2022/06/17 01:01:53;;;;;;;5.68;2.97;;;17.50;99.90;;;;;;4994338;28;20717;-54
2022/06/17 01:04:25;;;;;;;6.47;3.33;;;17.60;99.90;;;;;;4994183;28;20631;-55
2022/06/17 01:07:02;;;;;;;5.22;3.42;;;17.60;99.90;;;;;;4993824;28;20701;-54
2022/06/17 01:12:19;;;;;;;4.97;3.17;;;17.50;99.90;;;;;;4994117;28;20260;-55
2022/06/17 01:14:45;;;;;;;5.03;2.97;;;17.50;99.90;;;;;;4993574;28;20239;-55
2022/06/17 01:17:14;;;;;;;5.82;3.53;;;17.30;99.90;;;;;;4993678;28;20543;-55
2022/06/17 01:19:44;;;;;;;3.75;2.90;;;17.40;99.90;;;;;;4993220;28;20176;-55
2022/06/17 01:22:12;;;;;;;5.32;3.47;;;17.30;99.90;;;;;;4994008;28;20575;-55
2022/06/17 01:24:38;;;;;;;4.15;3.42;;;17.40;99.90;;;;;;4993859;28;20157;-55
2022/06/17 01:27:04;;;;;;;6.25;3.70;;;17.30;99.90;;;;;;4976023;28;20181;-54
2022/06/17 01:29:32;;;;;;;5.78;3.90;;;17.20;99.90;;;;;;4993512;28;20161;-54
2022/06/17 01:31:58;;;;;;;6.07;3.60;;;17.30;99.90;;;;;;4993375;28;20203;-55
2022/06/17 01:34:24;;;;;;;8.20;3.80;;;17.30;99.90;;;;;;4993354;28;20176;-55
2022/06/17 01:36:50;;;;;;;4.75;3.40;;;17.20;99.90;;;;;;4993344;28;20664;-55
2022/06/17 01:39:17;;;;;;;5.28;3.72;;;17.20;99.90;;;;;;4993532;28;20546;-55
2022/06/17 01:41:45;;;;;;;8.35;4.20;;;17.30;99.90;;;;;;4993266;28;20212;-55
2022/06/17 01:44:25;;;;;;;7.28;3.63;;;17.20;99.90;;;;;;4993584;28;20200;-55
2022/06/17 01:46:54;;;;;;;6.68;3.22;;;17.20;99.90;;;;;;4993396;28;20180;-55
2022/06/17 01:49:22;;;;;;;4.03;3.22;;;17.10;99.90;;;;;;4992869;28;20221;-55
2022/06/17 01:52:01;;;;;;;6.75;3.42;;;17.00;99.90;;;;;;4992350;28;20195;-54
2022/06/17 01:54:31;;;;;;;4.32;3.55;;;17.00;99.90;;;;;;4992285;28;20251;-54
2022/06/17 01:57:00;;;;;;;4.47;3.60;;;16.90;99.90;;;;;;4992138;28;20176;-54
2022/06/17 01:59:43;;;;;;;6.50;3.80;;;17.00;99.90;;;;;;4992111;28;20689;-54
2022/06/17 02:02:13;;;;;;;4.97;3.60;;;17.00;99.90;;;;;;4992390;28;20215;-54
2022/06/17 02:04:43;;;;;;;4.65;3.60;;;17.10;99.90;;;;;;4992739;28;20226;-54
2022/06/17 02:07:43;;;;;;;7.10;3.70;;;17.00;99.90;;;;;;4992308;28;20172;-55
2022/06/17 02:10:09;;;;;;;7.65;3.60;;;16.90;99.90;;;;;;4992466;28;20180;-54
2022/06/17 02:12:36;;;;;;;4.70;3.53;;;16.90;99.90;;;;;;4991926;28;20222;-54
2022/06/17 02:15:02;;;;;;;7.40;4.13;;;16.90;99.90;;;;;;4992072;28;20317;-55
2022/06/17 02:17:31;;;;;;;7.22;4.05;;;16.90;99.90;;;;;;4991940;28;20423;-54
2022/06/17 02:19:57;;;;;;;4.72;3.60;;;17.00;99.90;;;;;;4991878;28;20165;-54
2022/06/17 02:22:25;;;;;;;4.82;3.80;;;17.00;99.90;;;;;;4991785;28;20602;-54
2022/06/17 02:24:56;;;;;;;5.13;3.42;;;17.00;99.90;;;;;;4992006;28;20173;-54
2022/06/17 02:27:22;;;;;;;10.45;4.07;;;16.80;99.90;;;;;;4991823;28;20638;-54
2022/06/17 02:29:50;;;;;;;4.38;3.63;;;16.70;99.90;;;;;;4991752;28;20222;-54
2022/06/17 02:32:17;;;;;;;7.63;3.92;;;16.80;99.90;;;;;;4990868;28;20168;-54
2022/06/17 02:35:09;;;;;;;4.68;3.78;;;16.80;99.90;;;;;;4991643;28;20165;-54
2022/06/17 02:37:34;;;;;;;3.95;3.00;;;16.90;99.90;;;;;;4991781;28;20247;-54
2022/06/17 02:40:13;;;;;;;6.82;3.75;;;16.80;99.90;;;;;;4991704;28;20196;-54
2022/06/17 02:42:40;;;;;;;4.95;3.60;;;16.70;99.90;;;;;;4991483;28;20262;-54
2022/06/17 02:45:18;;;;;;;5.03;3.35;;;16.70;99.90;;;;;;4991872;28;20177;-54
2022/06/17 02:47:44;;;;;;;5.30;3.83;;;16.80;99.90;;;;;;4974135;28;20168;-54
2022/06/17 02:50:17;;;;;;;6.68;3.42;;;16.60;99.90;;;;;;4953193;28;1128512;-54
2022/06/17 02:52:44;;;;;;;7.35;3.90;;;16.50;99.90;;;;;;4992463;28;20668;-54
2022/06/17 02:55:23;;;;;;;4.10;3.47;;;16.70;99.90;;;;;;4992606;28;20216;-54
2022/06/17 02:57:49;;;;;;;5.85;4.15;;;16.70;99.90;;;;;;4992333;28;20207;-54
2022/06/17 03:00:20;;;;;;;5.68;3.83;;;16.80;99.90;;;;;;4992494;28;20175;-54
2022/06/17 03:02:53;;;;;;;6.00;3.70;;;16.60;99.90;;;;;;4992103;28;20694;-55
2022/06/17 03:05:24;;;;;;;4.70;3.80;;;16.80;99.90;;;;;;4992297;28;20175;-54
2022/06/17 03:07:51;;;;;;;4.55;3.92;;;16.80;99.90;;;;;;4992170;28;20689;-54
2022/06/17 03:10:21;;;;;;;3.70;3.38;;;16.80;99.90;;;;;;4992184;28;20180;-54
2022/06/17 03:12:55;;;;;;;6.72;3.70;;;16.80;99.90;;;;;;4992235;28;20169;-54
2022/06/17 03:15:23;;;;;;;5.20;3.25;;;16.80;99.90;;;;;;4992327;28;20539;-54
2022/06/17 03:17:48;;;;;;;4.82;3.65;;;16.80;99.90;;;;;;4992041;28;20173;-54
2022/06/17 03:20:24;;;;;;;6.10;3.63;;;16.80;99.90;;;;;;4991978;28;20164;-54
2022/06/17 03:22:56;;;;;;;5.97;3.50;;;16.80;99.90;;;;;;4992008;28;20290;-54
2022/06/17 03:25:33;;;;;;;6.88;4.05;;;16.80;99.90;;;;;;4992143;28;20222;-54
2022/06/17 03:28:03;;;;;;;5.78;3.63;;;16.70;99.90;;;;;;4992072;28;20165;-54
2022/06/17 03:30:43;;;;;;;7.13;4.00;;;16.70;99.90;;;;;;4992227;28;20203;-54
2022/06/17 03:33:20;;;;;;;11.82;3.72;;;16.80;99.90;;;;;;4992391;28;20168;-54
2022/06/17 03:35:47;;;;;;;7.47;3.90;;;16.70;99.90;;;;;;4992311;28;20219;-54
2022/06/17 03:38:26;;;;;;;7.35;3.95;;;16.70;99.90;;;;;;4974227;28;20204;-54
2022/06/17 03:40:59;;;;;;;13.65;4.00;;;16.70;99.90;;;;;;4991948;28;20223;-54
2022/06/17 03:43:38;;;;;;;7.18;3.30;;;16.70;99.90;;;;;;4994229;28;20304;-54
2022/06/17 03:46:06;;;;;;;7.30;3.22;;;16.60;99.90;;;;;;4995278;28;20171;-54
2022/06/17 03:49:11;;;;;;;4.80;3.28;;;16.50;99.90;;;;;;4995258;28;20689;-54
2022/06/17 03:51:40;;;;;;;6.38;3.50;;;16.50;99.90;;;;;;4935699;29;20577;-54
2022/06/17 03:54:09;;;;;;;6.20;3.63;;;16.60;99.90;;;;;;4985725;28;20180;-54
2022/06/17 03:56:36;;;;;;;5.80;3.83;;;16.50;99.90;;;;;;4995576;28;20196;-54
2022/06/17 03:59:07;;;;;;;4.55;3.38;;;16.60;99.90;;;;;;4995211;28;20258;-54
2022/06/17 04:01:37;;;;;;;7.75;3.60;;;16.60;99.90;;;;;;4978080;28;20275;-54
2022/06/17 04:04:11;;;;;;;9.98;4.00;;;16.60;99.90;;;;;;4995389;28;20275;-53
2022/06/17 04:06:40;;;;;;;6.35;3.90;;;16.60;99.90;;;;;;4995273;28;20168;-54
2022/06/17 04:09:15;;;;;;;6.80;3.50;;;16.60;99.90;;;;;;4995250;28;20165;-54
2022/06/17 04:11:44;;;;;;;4.97;3.67;;;16.60;99.90;;;;;;4994965;28;20169;-54
2022/06/17 04:14:24;;;;;;;5.05;3.83;;;16.70;99.90;;;;;;4994958;28;20244;-54
2022/06/17 04:16:54;;;;;;;5.80;3.55;;;16.80;99.90;;;;;;4995086;28;20184;-55
2022/06/17 04:19:26;;;;;;;8.20;4.97;;;16.90;99.90;;;;;;4995147;28;20709;-55
2022/06/17 04:21:55;;;;;;;7.40;3.95;;;17.00;99.90;;;;;;4994881;28;20208;-54
2022/06/17 04:24:24;;;;;;;7.00;3.70;;;17.00;99.90;;;;;;4994824;28;20179;-54
2022/06/17 04:26:54;;;;;;;4.72;3.75;;;17.20;99.90;;;;;;4994641;28;20168;-54
2022/06/17 04:29:42;;;;;;;5.65;3.85;;;17.30;99.90;;;;;;4994652;28;20251;-54
2022/06/17 04:32:24;;;;;;;8.32;4.20;;;17.20;99.90;;;;;;4994479;28;20185;-54
2022/06/17 04:34:50;;;;;;;5.80;3.85;;;17.50;99.90;;;;;;4994500;28;20157;-55
2022/06/17 04:37:20;;;;;;;5.95;3.95;;;17.70;99.90;;;;;;4994182;28;20544;-54
2022/06/17 04:39:53;;;;;;;5.97;3.83;;;17.80;99.90;;;;;;4994273;28;20173;-54
2022/06/17 04:42:33;;;;;;;8.80;4.03;;;18.00;99.90;;;;;;4993246;28;20216;-54
2022/06/17 04:45:00;;;;;;;4.10;3.40;;;18.00;99.90;;;;;;4994246;28;20157;-54
2022/06/17 04:47:25;;;;;;;7.43;3.80;;;18.00;99.90;;;;;;4994465;28;20172;-54
2022/06/17 04:49:58;;;;;;;5.40;3.75;;;18.40;99.90;;;;;;4994147;28;20239;-54
2022/06/17 04:52:35;;;;;;;6.47;3.90;;;18.40;99.90;;;;;;4994176;28;20176;-54
2022/06/17 04:55:03;;;;;;;5.63;4.03;;;18.50;99.90;;;;;;4993232;28;20172;-54
2022/06/17 04:57:30;;;;;;;4.80;3.40;;;18.50;99.90;;;;;;4976571;28;20610;-54
2022/06/17 04:59:58;;;;;;;7.03;4.28;;;18.60;99.90;;;;;;4994356;28;20196;-54
2022/06/17 05:02:27;;;;;;;4.80;3.90;;;18.60;99.90;;;;;;4993908;28;20565;-53
2022/06/17 05:04:57;;;;;;;6.65;4.05;;;18.70;99.90;;;;;;4993820;28;20168;-54
2022/06/17 05:07:24;;;;;;;7.13;3.97;;;18.80;99.90;;;;;;4994166;28;20200;-54
2022/06/17 05:09:57;;;;;;;5.90;4.50;;;18.90;99.90;;;;;;4993701;28;20172;-54
2022/06/17 05:12:40;;;;;;;4.63;4.05;;;18.70;99.90;;;;;;4993867;28;20165;-54
2022/06/17 05:15:12;;;;;;;6.85;4.30;;;18.90;99.90;;;;;;4994196;28;20179;-54
2022/06/17 05:17:38;;;;;;;8.82;4.07;;;18.90;99.90;;;;;;4993999;28;20204;-55
2022/06/17 05:20:06;;;;;;;9.38;4.25;;;18.90;99.90;;;;;;4993991;28;20172;-54
2022/06/17 05:22:43;;;;;;;7.45;4.47;;;18.90;99.90;;;;;;4993523;28;20216;-53
2022/06/17 05:25:18;;;;;;;5.90;5.13;;;19.10;99.90;;;;;;4993872;28;20602;-54
2022/06/17 05:27:43;;;;;;;7.78;4.93;;;19.20;99.90;;;;;;4993528;28;20219;-54
2022/06/17 05:30:11;;;;;;;10.57;5.13;;;19.30;99.90;;;;;;4993362;28;20551;-54
2022/06/17 05:32:38;;;;;;;11.43;5.82;;;19.30;99.90;;;;;;4994031;28;20199;-54
2022/06/17 05:35:04;;;;;;;8.43;5.00;;;19.50;99.90;;;;;;4993666;28;20165;-53
2022/06/17 05:37:30;;;;;;;10.63;5.10;;;19.70;99.90;;;;;;4993260;28;20191;-54
2022/06/17 05:39:55;;;;;;;8.32;4.65;;;19.80;99.90;;;;;;4975891;28;20168;-54
2022/06/17 05:42:21;;;;;;;6.00;4.50;;;20.10;99.90;;;;;;4993067;28;20204;-54
2022/06/17 05:44:47;;;;;;;6.00;4.40;;;20.40;99.90;;;;;;4993192;28;20172;-54
2022/06/17 05:47:13;;;;;;;7.75;4.93;;;20.60;99.90;;;;;;4993141;28;20187;-54
2022/06/17 05:49:39;;;;;;;7.88;4.95;;;20.60;99.90;;;;;;4992897;28;20212;-54
2022/06/17 05:52:05;;;;;;;7.78;5.40;;;20.60;99.90;;;;;;4993611;28;20238;-53
2022/06/17 05:54:31;;;;;;;9.75;5.35;;;20.60;99.90;;;;;;4993290;28;20252;-53
2022/06/17 05:56:56;;;;;;;9.88;5.55;;;20.60;99.90;;;;;;4993070;28;20594;-53
2022/06/17 05:59:22;;;;;;;9.40;5.28;;;20.60;99.90;;;;;;4993206;28;20637;-53
2022/06/17 06:01:47;;;;;;;10.52;5.22;;;20.50;99.90;;;;;;4992823;28;20393;-53
2022/06/17 06:04:13;;;;;;;8.70;5.00;;;20.60;99.90;;;;;;4992931;28;20177;-53
2022/06/17 06:06:38;;;;;;;11.18;5.03;;;20.50;99.90;;;;;;4992626;28;20165;-53
2022/06/17 06:09:04;;;;;;;7.35;5.38;;;20.70;99.90;;;;;;4993466;28;20177;-54
2022/06/17 06:11:30;;;;;;;13.65;5.75;;;20.90;99.90;;;;;;4992819;28;20173;-54
2022/06/17 06:13:56;;;;;;;10.10;5.28;;;21.10;99.90;;;;;;4993041;28;20196;-53
2022/06/17 06:16:23;;;;;;;7.88;4.93;;;21.10;99.90;;;;;;4992797;28;20184;-53
2022/06/17 06:18:50;;;;;;;9.48;5.55;;;20.80;99.90;;;;;;4992919;28;20219;-53
2022/06/17 06:21:16;;;;;;;6.35;5.15;;;20.90;99.90;;;;;;4992792;28;20513;-53
2022/06/17 06:23:42;;;;;;;12.75;6.30;;;20.90;99.90;;;;;;4992751;28;20175;-53
2022/06/17 06:26:13;;;;;;;9.65;6.13;;;20.90;99.90;;;;;;4992881;28;20164;-53
2022/06/17 06:28:39;;;;;;;8.43;5.35;;;20.90;99.90;;;;;;4992760;28;20234;-54
2022/06/17 06:31:22;;;;;;;11.55;5.95;;;21.10;99.90;;;;;;4992924;28;20255;-53
2022/06/17 06:33:48;;;;;;;10.98;5.95;;;21.40;99.90;;;;;;4992520;28;20160;-53
2022/06/17 06:36:14;;;;;;;6.90;5.65;;;21.40;99.90;;;;;;4992624;28;20169;-53
2022/06/17 06:38:39;;;;;;;8.60;5.50;;;21.30;99.90;;;;;;4992412;28;20249;-53
2022/06/17 06:41:05;;;;;;;7.32;5.10;;;21.30;99.90;;;;;;4992882;28;20169;-54
2022/06/17 06:43:31;;;;;;;9.98;6.57;;;21.50;99.90;;;;;;4974958;28;20550;-53
2022/06/17 06:45:57;;;;;;;13.55;7.75;;;21.60;99.90;;;;;;4992362;28;20686;-54
2022/06/17 06:48:25;;;;;;;15.00;7.30;;;21.70;99.90;;;;;;4992383;28;20720;-53
2022/06/17 06:50:51;;;;;;;12.13;6.95;;;21.90;99.90;;;;;;4992147;28;20225;-53
2022/06/17 06:53:17;;;;;;;15.40;6.40;;;21.90;99.90;;;;;;4992375;28;20173;-53
2022/06/17 06:55:43;;;;;;;11.63;7.00;;;21.90;99.90;;;;;;4992441;28;20248;-54
2022/06/17 06:58:18;;;;;;;9.02;6.82;;;22.00;99.90;;;;;;4992383;28;20640;-54
2022/06/17 07:00:46;;;;;;;10.00;6.30;;;22.10;99.90;;;;;;4992423;28;20168;-54
2022/06/17 07:03:12;;;;;;;6.35;5.70;;;22.10;99.90;;;;;;4992155;28;20306;-54
2022/06/17 07:05:42;;;;;;;10.90;6.40;;;22.20;99.90;;;;;;4992329;28;20173;-54
2022/06/17 07:08:11;;;;;;;10.15;6.15;;;22.30;99.90;;;;;;4992324;28;20176;-54
2022/06/17 07:10:37;;;;;;;10.65;6.68;;;22.40;99.90;;;;;;4992552;28;20204;-54
2022/06/17 07:13:04;;;;;;;10.20;5.65;;;22.70;99.90;;;;;;4992206;28;20634;-54
2022/06/17 07:15:30;;;;;;;7.75;5.95;;;22.80;99.90;;;;;;4992384;28;20176;-54
2022/06/17 07:18:02;;;;;;;7.75;5.15;;;23.00;99.90;;;;;;4993943;28;20251;-53
2022/06/17 07:20:37;;;;;;;7.95;5.90;;;23.00;99.90;;;;;;4995812;28;20175;-54
2022/06/17 07:23:07;;;;;;;8.90;5.45;;;22.90;99.90;;;;;;4995938;28;20346;-54
2022/06/17 07:25:33;;;;;;;6.97;4.63;;;22.80;99.90;;;;;;4995771;28;20547;-54
2022/06/17 07:28:00;;;;;;;9.98;5.07;;;23.00;99.90;;;;;;4995808;28;20169;-54
2022/06/17 07:30:26;;;;;;;7.72;4.72;;;23.20;99.90;;;;;;4995617;28;20565;-54
2022/06/17 07:32:52;;;;;;;8.63;4.43;;;23.30;99.90;;;;;;4995656;28;20201;-53
2022/06/17 07:35:17;;;;;;;7.47;4.45;;;23.10;99.90;;;;;;4995637;28;20303;-54
2022/06/17 07:40:28;;;;;;;10.60;4.45;;;23.20;99.90;;;;;;4995942;28;21084;-54
2022/06/17 07:42:55;;;;;;;10.52;4.22;;;23.30;99.90;;;;;;4995528;28;20204;-54
2022/06/17 07:45:21;;;;;;;11.02;4.25;;;23.40;99.90;;;;;;4995532;28;20180;-53
2022/06/17 07:47:54;;;;;;;7.10;4.05;;;23.40;99.90;;;;;;4995469;28;20247;-53
2022/06/17 07:50:27;;;;;;;9.00;4.47;;;23.60;99.90;;;;;;4995030;28;20216;-54
2022/06/17 07:52:53;;;;;;;9.90;3.78;;;23.70;99.90;;;;;;4995564;28;20181;-54
2022/06/17 07:55:19;;;;;;;5.47;3.70;;;23.70;99.90;;;;;;4995190;28;20589;-54
2022/06/17 07:57:45;;;;;;;8.70;3.45;;;23.90;99.90;;;;;;4995197;28;20180;-54
2022/06/17 08:00:22;;;;;;;5.60;3.42;;;24.00;99.90;;;;;;4995127;28;20169;-54
2022/06/17 08:02:48;;;;;;;6.90;3.55;;;24.00;99.90;;;;;;4994907;28;20259;-55
2022/06/17 08:05:14;;;;;;;9.68;4.03;;;23.90;99.90;;;;;;4995010;28;20172;-54
2022/06/17 08:07:40;;;;;;;6.50;3.35;;;23.80;99.90;;;;;;4994984;28;20543;-54
2022/06/17 08:10:06;;;;;;;3.38;3.00;;;24.00;99.90;;;;;;4995242;28;20165;-54
2022/06/17 08:12:32;;;;;;;5.07;2.80;;;23.90;99.90;;;;;;4995160;28;20267;-54
2022/06/17 08:14:57;;;;;;;7.90;3.33;;;24.20;99.90;;;;;;4994805;28;20596;-54
2022/06/17 08:17:24;;;;;;;10.13;3.42;;;24.30;99.90;;;;;;4994838;28;20179;-54
2022/06/17 08:19:56;;;;;;;4.60;2.70;;;24.60;99.90;;;;;;4995027;28;20256;-54
2022/06/17 08:22:24;;;;;;;6.13;2.58;;;24.70;99.90;;;;;;4994857;28;20208;-54
2022/06/17 08:24:50;;;;;;;7.20;2.40;;;24.50;99.90;;;;;;4994730;28;20704;-54
2022/06/17 08:27:16;;;;;;;2.30;2.10;;;24.40;99.90;;;;;;4994676;28;20169;-54
2022/06/17 08:29:41;;;;;;;5.03;2.35;;;24.70;99.90;;;;;;4994527;28;20509;-54
2022/06/17 08:34:51;;;;;;;6.05;2.47;;;24.30;99.90;;;;;;4994672;28;20172;-54
2022/06/17 08:37:17;;;;;;;5.93;2.38;;;24.30;99.90;;;;;;4994542;28;20172;-54
2022/06/17 08:39:47;;;;;;;7.20;2.72;;;24.50;99.90;;;;;;4977053;28;20177;-53
2022/06/17 08:42:27;;;;;;;6.80;3.10;;;24.60;99.90;;;;;;4994230;28;20693;-54
2022/06/17 08:45:25;;;;;;;4.93;2.90;;;24.70;99.90;;;;;;4994337;28;20179;-54
2022/06/17 08:48:27;;;;;;;3.67;2.55;;;25.20;99.90;;;;;;4994349;28;20664;-54
2022/06/17 08:51:08;;;;;;;3.88;2.38;;;25.20;99.90;;;;;;4993997;28;20220;-54
2022/06/17 08:53:42;;;;;;;6.85;2.67;;;25.00;99.90;;;;;;4994474;28;20246;-54
2022/06/17 08:56:34;;;;;;;3.83;2.30;;;25.10;99.90;;;;;;4994130;28;20164;-54
2022/06/17 08:59:15;;;;;;;2.45;2.10;;;24.90;99.90;;;;;;4990942;28;20184;-54
2022/06/17 09:01:49;;;;;;;7.38;2.35;;;25.10;99.90;;;;;;4994090;28;20203;-54
2022/06/17 09:04:40;;;;;;;6.53;3.05;;;25.10;99.90;;;;;;4993997;28;20207;-54
2022/06/17 09:07:34;;;;;;;214.13;33.03;;;25.30;99.90;;;;;;4976700;28;20315;-54
2022/06/17 09:10:14;;;;;;;6.57;2.70;;;25.20;99.90;;;;;;4993729;28;20168;-54
2022/06/17 09:13:01;;;;;;;4.60;2.35;;;25.20;99.90;;;;;;4993809;28;20164;-54
2022/06/17 09:15:29;;;;;;;7.20;2.47;;;25.20;99.90;;;;;;4993967;28;20173;-54
2022/06/17 09:18:07;;;;;;;5.57;2.83;;;25.30;99.90;;;;;;4993878;28;20541;-54
2022/06/17 09:20:44;;;;;;;4.45;2.55;;;25.60;99.90;;;;;;4994055;28;20164;-54
2022/06/17 09:23:15;;;;;;;5.50;2.25;;;25.70;99.90;;;;;;4993461;28;20208;-54
2022/06/17 09:25:43;;;;;;;7.30;2.60;;;25.80;99.90;;;;;;4993365;28;20171;-54
2022/06/17 09:28:38;;;;;;;6.28;2.30;;;26.00;99.90;;;;;;4993451;28;20179;-54
2022/06/17 09:31:14;;;;;;;3.88;2.58;;;26.20;99.90;;;;;;4992124;28;20201;-54
2022/06/17 09:33:54;;;;;;;6.72;2.10;;;26.10;99.90;;;;;;4993290;28;20168;-54
2022/06/17 09:36:32;;;;;;;3.63;2.30;;;26.20;99.90;;;;;;4992971;28;20218;-54
2022/06/17 09:39:07;;;;;;;5.97;2.25;;;26.30;99.90;;;;;;4993584;28;20188;-54
2022/06/17 09:41:44;;;;;;;3.72;1.98;;;26.20;99.90;;;;;;4993030;28;20202;-54
2022/06/17 09:44:24;;;;;;;3.97;2.00;;;26.40;99.90;;;;;;4993377;28;20262;-54
2022/06/17 09:47:03;;;;;;;4.35;2.20;;;26.30;99.90;;;;;;4992928;28;20168;-54
2022/06/17 09:49:47;;;;;;;8.60;2.72;;;26.30;98.70;;;;;;4992736;28;20722;-54
2022/06/17 09:52:24;;;;;;;3.58;2.53;;;26.30;99.90;;;;;;4993330;28;20223;-54
2022/06/17 09:55:05;;;;;;;5.15;2.92;;;26.30;99.90;;;;;;4992809;28;20176;-54
2022/06/17 09:57:35;;;;;;;9.13;2.40;;;26.70;99.90;;;;;;4993171;28;20243;-54
2022/06/17 10:00:07;;;;;;;6.45;2.47;;;26.60;99.90;;;;;;4992667;28;20161;-54
2022/06/17 10:02:46;;;;;;;3.90;1.88;;;26.80;99.90;;;;;;4992940;28;20207;-54
2022/06/17 10:05:24;;;;;;;8.32;2.58;;;27.20;99.80;;;;;;4992475;28;20175;-54
2022/06/17 10:07:58;;;;;;;2.55;2.10;;;26.90;99.90;;;;;;4992844;28;20268;-54
2022/06/17 10:11:00;;;;;;;4.63;1.90;;;27.10;96.00;;;;;;4992443;28;20164;-55
2022/06/17 10:13:44;;;;;;;2.95;1.70;;;27.30;95.30;;;;;;4992677;28;20166;-54
2022/06/17 10:19:42;;;;;;;2.55;2.00;;;27.20;95.10;;;;;;4992756;28;20175;-54
2022/06/17 10:22:44;;;;;;;4.65;1.98;;;27.20;96.30;;;;;;4992571;28;20227;-54
2022/06/17 10:25:25;;;;;;;2.45;1.70;;;27.50;92.00;;;;;;4992389;28;20180;-54
2022/06/17 10:27:51;;;;;;;5.43;1.60;;;27.50;93.00;;;;;;4974721;28;20215;-54
2022/06/17 10:30:24;;;;;;;3.67;1.67;;;27.70;90.10;;;;;;4992423;28;20180;-54
2022/06/17 10:32:52;;;;;;;2.72;1.60;;;27.90;88.50;;;;;;4992293;28;20164;-53
2022/06/17 10:35:39;;;;;;;5.15;1.92;;;27.60;88.70;;;;;;4992320;28;20258;-54
2022/06/17 10:38:08;;;;;;;6.97;1.90;;;27.70;90.20;;;;;;4992358;28;20168;-54
2022/06/17 10:40:38;;;;;;;2.20;1.58;;;27.60;87.30;;;;;;4992133;28;20172;-54
2022/06/17 10:43:09;;;;;;;7.20;2.22;;;28.00;86.40;;;;;;4992535;28;20216;-54
2022/06/17 10:45:35;;;;;;;2.00;1.67;;;28.30;85.10;;;;;;4992419;28;20708;-54
2022/06/17 10:48:13;;;;;;;3.00;1.70;;;28.50;83.90;;;;;;4992443;28;20218;-54
2022/06/17 10:50:38;;;;;;;8.15;2.00;;;28.50;82.60;;;;;;4992228;28;20298;-54
2022/06/17 10:53:31;;;;;;;2.17;1.90;;;28.40;86.80;;;;;;4995028;28;20303;-54
2022/06/17 10:56:00;;;;;;;3.92;1.95;;;28.20;80.70;;;;;;4996149;28;20179;-54
2022/06/17 10:58:32;;;;;;;4.45;1.50;;;28.60;80.90;;;;;;4996276;28;20207;-54
2022/06/17 11:01:06;;;;;;;2.30;1.40;;;28.80;80.40;;;;;;4996435;28;20180;-54
2022/06/17 11:03:34;;;;;;;2.03;1.70;;;28.50;79.40;;;;;;4996695;28;20212;-53
2022/06/17 11:06:08;;;;;;;5.30;1.70;;;28.50;80.80;;;;;;4996617;28;20172;-53
2022/06/17 11:08:36;;;;;;;3.20;1.50;;;28.60;81.40;;;;;;4996597;28;20660;-54
2022/06/17 11:13:50;;;;;;;1.80;1.58;;;28.60;79.50;;;;;;4996285;28;20183;-54
2022/06/17 11:16:19;;;;;;;6.22;1.77;;;28.90;80.00;;;;;;4995127;28;20303;-54
2022/06/17 11:18:55;;;;;;;4.22;1.90;;;29.40;80.60;;;;;;4977457;28;20548;-54
2022/06/17 11:21:29;;;;;;;3.40;1.65;;;29.50;80.80;;;;;;4995347;28;20176;-54
2022/06/17 11:23:58;;;;;;;4.45;2.05;;;29.40;81.20;;;;;;4995866;28;20215;-54
2022/06/17 11:26:30;;;;;;;3.95;2.08;;;29.60;81.40;;;;;;4995682;28;20164;-54
2022/06/17 11:29:00;;;;;;;6.50;1.95;;;29.60;79.60;;;;;;4995740;28;20226;-54
2022/06/17 11:31:25;;;;;;;4.80;1.70;;;29.70;81.00;;;;;;4978112;28;20168;-54
2022/06/17 11:33:59;;;;;;;2.33;1.63;;;29.70;78.60;;;;;;4995628;28;20169;-54
2022/06/17 11:36:30;;;;;;;2.50;1.70;;;29.80;78.00;;;;;;4995574;28;20171;-54
2022/06/17 11:38:58;;;;;;;6.13;1.98;;;29.80;76.10;;;;;;4995575;28;20544;-54
2022/06/17 11:41:31;;;;;;;4.60;2.00;;;29.50;74.60;;;;;;4995457;28;20689;-54
2022/06/17 11:44:07;;;;;;;4.53;1.80;;;29.60;77.80;;;;;;4995556;28;20238;-54
2022/06/17 11:46:35;;;;;;;3.75;1.67;;;29.80;76.60;;;;;;4995672;28;20180;-54
2022/06/17 11:49:08;;;;;;;4.38;1.60;;;29.40;78.30;;;;;;4995405;28;20568;-54
2022/06/17 11:51:38;;;;;;;1.70;1.60;;;29.60;79.00;;;;;;4995380;28;20164;-54
2022/06/17 11:54:19;;;;;;;3.15;1.50;;;29.50;78.50;;;;;;4995519;28;20171;-54
2022/06/17 11:56:46;;;;;;;2.63;1.40;;;29.70;76.60;;;;;;4995236;28;20171;-54
2022/06/17 11:59:26;;;;;;;3.95;2.05;;;29.60;74.40;;;;;;4995148;28;20258;-54
2022/06/17 12:01:55;;;;;;;3.70;1.70;;;29.50;75.40;;;;;;4994464;28;20676;-54
2022/06/17 12:04:48;;;;;;;2.92;1.75;;;29.90;75.10;;;;;;4994734;28;20536;-54
2022/06/17 12:07:32;;;;;;;5.28;1.70;;;29.80;76.00;;;;;;4995045;28;20168;-54
2022/06/17 12:10:16;;;;;;;3.35;1.50;;;30.00;78.00;;;;;;4994458;28;20164;-54
2022/06/17 12:12:43;;;;;;;5.75;1.83;;;30.00;74.80;;;;;;4995173;28;20508;-54
2022/06/17 12:15:09;;;;;;;3.22;1.80;;;29.80;73.90;;;;;;4994854;28;20183;-54
2022/06/17 12:17:38;;;;;;;1.88;1.70;;;29.80;72.90;;;;;;4994748;28;20240;-54
2022/06/17 12:20:48;;;;;;;4.47;1.70;;;29.80;74.00;;;;;;4995189;28;20168;-54
2022/06/17 12:23:29;;;;;;;3.10;1.90;;;30.00;73.50;;;;;;4979218;28;20215;-54
2022/06/17 12:26:00;;;;;;;3.15;2.20;;;30.20;73.80;;;;;;4994939;28;20172;-54
2022/06/17 12:28:39;;;;;;;4.47;1.80;;;30.10;72.50;;;;;;4994644;28;20168;-54
2022/06/17 12:31:26;;;;;;;2.15;1.90;;;30.40;73.10;;;;;;4995454;28;20642;-53
2022/06/17 12:34:44;;;;;;;2.00;1.60;;;30.70;73.10;;;;;;4978652;28;20165;-53
2022/06/17 12:37:31;;;;;;;3.08;2.25;;;30.60;73.50;;;;;;4928842;29;20261;-54
2022/06/17 12:40:06;;;;;;;3.92;2.03;;;30.70;73.20;;;;;;4990932;28;20188;-54
2022/06/17 12:42:35;;;;;;;2.88;1.92;;;30.60;73.20;;;;;;4994874;28;20211;-54
2022/06/17 12:45:27;;;;;;;3.83;1.63;;;30.60;74.10;;;;;;4976052;28;20172;-53
2022/06/17 12:48:19;;;;;;;1.73;1.60;;;30.80;72.30;;;;;;4994081;28;20172;-54
2022/06/17 12:53:48;;;;;;;5.47;2.50;;;30.90;73.30;;;;;;4994194;28;20960;-54
2022/06/17 12:56:49;;;;;;;2.58;2.17;;;31.00;75.60;;;;;;4993795;28;20168;-54
2022/06/17 12:59:40;;;;;;;4.03;2.10;;;30.60;74.80;;;;;;4993662;28;20179;-54
2022/06/17 13:02:32;;;;;;;4.38;2.13;;;30.70;73.60;;;;;;4994057;28;20200;-54
2022/06/17 13:05:23;;;;;;;3.53;1.77;;;30.70;73.30;;;;;;4993774;28;20174;-54
2022/06/17 13:08:10;;;;;;;2.75;1.83;;;30.60;74.70;;;;;;4993641;28;20247;-54
2022/06/17 13:10:59;;;;;;;4.07;1.90;;;30.80;73.10;;;;;;4993385;28;20200;-54
2022/06/17 13:13:44;;;;;;;4.53;1.92;;;31.10;72.90;;;;;;4993175;28;20310;-54
2022/06/17 13:16:26;;;;;;;2.10;1.67;;;31.00;71.70;;;;;;4992637;28;20168;-54
2022/06/17 13:19:22;;;;;;;1.92;1.77;;;31.00;71.80;;;;;;4993656;28;20239;-54
2022/06/17 13:22:15;;;;;;;8.57;2.67;;;31.10;73.30;;;;;;4993511;28;20203;-55
2022/06/17 13:24:51;;;;;;;3.90;2.20;;;31.00;73.40;;;;;;4993549;28;20168;-55
2022/06/17 13:27:29;;;;;;;8.20;2.80;;;31.30;72.60;;;;;;4993634;28;20700;-54
2022/06/17 13:30:22;;;;;;;3.92;2.40;;;30.90;72.10;;;;;;4993717;28;20672;-54
2022/06/17 13:32:59;;;;;;;4.90;1.90;;;31.00;73.10;;;;;;4993646;28;20229;-54